sensor_id;sensor_type;location;lat;lon;timestamp;temperature;humidity
3986;DHT22;2007;48.750;9.278;2023-10-19T00:02:06;15.50;53.80
3986;DHT22;2007;48.750;9.278;2023-10-19T00:04:34;15.50;53.80
3986;DHT22;2007;48.750;9.278;2023-10-19T00:07:03;15.50;53.80
3986;DHT22;2007;48.750;9.278;2023-10-19T00:09:32;15.50;53.80
3986;DHT22;2007;48.750;9.278;2023-10-19T00:12:05;15.50;53.80
3986;DHT22;2007;48.750;9.278;2023-10-19T00:14:36;15.50;53.80
3986;DHT22;2007;48.750;9.278;2023-10-19T00:17:03;15.50;53.70
3986;DHT22;2007;48.750;9.278;2023-10-19T00:19:37;15.50;53.80
3986;DHT22;2007;48.750;9.278;2023-10-19T00:22:07;15.40;53.70
3986;DHT22;2007;48.750;9.278;2023-10-19T00:24:42;15.50;53.80
3986;DHT22;2007;48.750;9.278;2023-10-19T00:27:12;15.40;53.60
3986;DHT22;2007;48.750;9.278;2023-10-19T00:29:44;15.40;53.70
3986;DHT22;2007;48.750;9.278;2023-10-19T00:32:16;15.50;53.80
3986;DHT22;2007;48.750;9.278;2023-10-19T00:34:45;15.50;53.80
3986;DHT22;2007;48.750;9.278;2023-10-19T00:37:19;15.50;53.70
3986;DHT22;2007;48.750;9.278;2023-10-19T00:39:53;15.50;53.70
3986;DHT22;2007;48.750;9.278;2023-10-19T00:42:23;15.50;53.80
3986;DHT22;2007;48.750;9.278;2023-10-19T00:44:58;15.50;53.70
3986;DHT22;2007;48.750;9.278;2023-10-19T00:47:31;15.50;53.80
3986;DHT22;2007;48.750;9.278;2023-10-19T00:50:08;15.50;53.80
3986;DHT22;2007;48.750;9.278;2023-10-19T00:52:42;15.40;53.60
3986;DHT22;2007;48.750;9.278;2023-10-19T00:55:16;15.50;53.70
3986;DHT22;2007;48.750;9.278;2023-10-19T00:57:54;15.50;53.70
3986;DHT22;2007;48.750;9.278;2023-10-19T01:00:23;15.50;53.80
3986;DHT22;2007;48.750;9.278;2023-10-19T01:02:58;15.50;53.70
3986;DHT22;2007;48.750;9.278;2023-10-19T01:05:32;15.50;53.70
3986;DHT22;2007;48.750;9.278;2023-10-19T01:08:03;15.50;53.80
3986;DHT22;2007;48.750;9.278;2023-10-19T01:10:41;15.50;53.80
3986;DHT22;2007;48.750;9.278;2023-10-19T01:13:13;15.50;53.80
3986;DHT22;2007;48.750;9.278;2023-10-19T01:15:43;15.50;53.80
3986;DHT22;2007;48.750;9.278;2023-10-19T01:18:15;15.50;53.80
3986;DHT22;2007;48.750;9.278;2023-10-19T01:20:44;15.50;53.70
3986;DHT22;2007;48.750;9.278;2023-10-19T01:23:20;15.50;53.70
3986;DHT22;2007;48.750;9.278;2023-10-19T01:25:54;15.50;53.80
3986;DHT22;2007;48.750;9.278;2023-10-19T01:28:34;15.50;53.80
3986;DHT22;2007;48.750;9.278;2023-10-19T01:31:16;15.50;53.70
3986;DHT22;2007;48.750;9.278;2023-10-19T01:33:49;15.50;53.80
3986;DHT22;2007;48.750;9.278;2023-10-19T01:36:22;15.50;53.70
3986;DHT22;2007;48.750;9.278;2023-10-19T01:38:56;15.50;53.80
3986;DHT22;2007;48.750;9.278;2023-10-19T01:41:28;15.50;53.80
3986;DHT22;2007;48.750;9.278;2023-10-19T01:43:57;15.50;53.80
3986;DHT22;2007;48.750;9.278;2023-10-19T01:46:32;15.50;53.80
3986;DHT22;2007;48.750;9.278;2023-10-19T01:49:03;15.50;53.70
3986;DHT22;2007;48.750;9.278;2023-10-19T01:51:32;15.50;53.80
3986;DHT22;2007;48.750;9.278;2023-10-19T01:54:07;15.50;53.80
3986;DHT22;2007;48.750;9.278;2023-10-19T01:56:34;15.50;53.80
3986;DHT22;2007;48.750;9.278;2023-10-19T01:59:06;15.50;53.80
3986;DHT22;2007;48.750;9.278;2023-10-19T02:01:35;15.50;53.80
3986;DHT22;2007;48.750;9.278;2023-10-19T02:04:05;15.50;53.80
3986;DHT22;2007;48.750;9.278;2023-10-19T02:06:34;15.50;53.80
3986;DHT22;2007;48.750;9.278;2023-10-19T02:09:07;15.50;53.80
3986;DHT22;2007;48.750;9.278;2023-10-19T02:11:44;15.50;53.80
3986;DHT22;2007;48.750;9.278;2023-10-19T02:14:14;15.50;53.80
3986;DHT22;2007;48.750;9.278;2023-10-19T02:16:42;15.50;53.80
3986;DHT22;2007;48.750;9.278;2023-10-19T02:19:11;15.50;53.80
3986;DHT22;2007;48.750;9.278;2023-10-19T02:21:38;15.50;53.80
3986;DHT22;2007;48.750;9.278;2023-10-19T02:24:09;15.50;53.80
3986;DHT22;2007;48.750;9.278;2023-10-19T02:26:38;15.50;53.80
3986;DHT22;2007;48.750;9.278;2023-10-19T02:29:07;15.50;53.80
3986;DHT22;2007;48.750;9.278;2023-10-19T02:31:36;15.50;53.80
3986;DHT22;2007;48.750;9.278;2023-10-19T02:34:07;15.50;53.80
3986;DHT22;2007;48.750;9.278;2023-10-19T02:36:38;15.50;53.80
3986;DHT22;2007;48.750;9.278;2023-10-19T02:39:09;15.50;53.80
3986;DHT22;2007;48.750;9.278;2023-10-19T02:41:37;15.50;53.80
3986;DHT22;2007;48.750;9.278;2023-10-19T02:44:09;15.50;53.80
3986;DHT22;2007;48.750;9.278;2023-10-19T02:46:37;15.50;53.80
3986;DHT22;2007;48.750;9.278;2023-10-19T02:49:10;15.50;53.80
3986;DHT22;2007;48.750;9.278;2023-10-19T02:51:39;15.50;53.80
3986;DHT22;2007;48.750;9.278;2023-10-19T02:54:08;15.50;53.80
3986;DHT22;2007;48.750;9.278;2023-10-19T02:56:42;15.50;53.80
3986;DHT22;2007;48.750;9.278;2023-10-19T02:59:14;15.50;53.80
3986;DHT22;2007;48.750;9.278;2023-10-19T03:01:42;15.50;53.80
3986;DHT22;2007;48.750;9.278;2023-10-19T03:04:12;15.50;53.80
3986;DHT22;2007;48.750;9.278;2023-10-19T03:06:41;15.50;53.80
3986;DHT22;2007;48.750;9.278;2023-10-19T03:09:11;15.50;53.80
3986;DHT22;2007;48.750;9.278;2023-10-19T03:11:46;15.50;53.90
3986;DHT22;2007;48.750;9.278;2023-10-19T03:14:19;15.50;53.80
3986;DHT22;2007;48.750;9.278;2023-10-19T03:16:46;15.50;53.80
3986;DHT22;2007;48.750;9.278;2023-10-19T03:19:14;15.50;53.80
3986;DHT22;2007;48.750;9.278;2023-10-19T03:21:41;15.50;53.80
3986;DHT22;2007;48.750;9.278;2023-10-19T03:24:11;15.50;53.80
3986;DHT22;2007;48.750;9.278;2023-10-19T03:26:40;15.50;53.80
3986;DHT22;2007;48.750;9.278;2023-10-19T03:29:15;15.50;53.80
3986;DHT22;2007;48.750;9.278;2023-10-19T03:31:44;15.50;53.90
3986;DHT22;2007;48.750;9.278;2023-10-19T03:34:14;15.50;53.80
3986;DHT22;2007;48.750;9.278;2023-10-19T03:36:43;15.50;53.80
3986;DHT22;2007;48.750;9.278;2023-10-19T03:39:13;15.50;53.80
3986;DHT22;2007;48.750;9.278;2023-10-19T03:41:41;15.50;53.80
3986;DHT22;2007;48.750;9.278;2023-10-19T03:44:11;15.50;53.80
3986;DHT22;2007;48.750;9.278;2023-10-19T03:46:46;15.50;53.90
3986;DHT22;2007;48.750;9.278;2023-10-19T03:49:24;15.50;53.90
3986;DHT22;2007;48.750;9.278;2023-10-19T03:51:57;15.50;53.80
3986;DHT22;2007;48.750;9.278;2023-10-19T03:54:48;15.50;53.80
3986;DHT22;2007;48.750;9.278;2023-10-19T03:57:18;15.50;53.90
3986;DHT22;2007;48.750;9.278;2023-10-19T03:59:52;15.50;53.80
3986;DHT22;2007;48.750;9.278;2023-10-19T04:02:23;15.50;53.90
3986;DHT22;2007;48.750;9.278;2023-10-19T04:04:51;15.50;53.90
3986;DHT22;2007;48.750;9.278;2023-10-19T04:07:23;15.50;53.80
3986;DHT22;2007;48.750;9.278;2023-10-19T04:09:55;15.50;53.80
3986;DHT22;2007;48.750;9.278;2023-10-19T04:12:37;15.50;53.90
3986;DHT22;2007;48.750;9.278;2023-10-19T04:15:09;15.50;53.80
3986;DHT22;2007;48.750;9.278;2023-10-19T04:17:39;15.50;54.10
3986;DHT22;2007;48.750;9.278;2023-10-19T04:20:10;15.50;53.90
3986;DHT22;2007;48.750;9.278;2023-10-19T04:22:55;15.50;53.90
3986;DHT22;2007;48.750;9.278;2023-10-19T04:25:26;15.50;53.90
3986;DHT22;2007;48.750;9.278;2023-10-19T04:27:56;15.50;53.80
3986;DHT22;2007;48.750;9.278;2023-10-19T04:30:24;15.50;53.80
3986;DHT22;2007;48.750;9.278;2023-10-19T04:32:53;15.50;53.90
3986;DHT22;2007;48.750;9.278;2023-10-19T04:35:22;15.50;53.90
3986;DHT22;2007;48.750;9.278;2023-10-19T04:37:51;15.50;53.90
3986;DHT22;2007;48.750;9.278;2023-10-19T04:40:20;15.50;53.90
3986;DHT22;2007;48.750;9.278;2023-10-19T04:42:52;15.50;53.90
3986;DHT22;2007;48.750;9.278;2023-10-19T04:45:20;15.50;53.90
3986;DHT22;2007;48.750;9.278;2023-10-19T04:47:50;15.50;53.90
3986;DHT22;2007;48.750;9.278;2023-10-19T04:50:20;15.50;53.90
3986;DHT22;2007;48.750;9.278;2023-10-19T04:52:48;15.50;53.90
3986;DHT22;2007;48.750;9.278;2023-10-19T04:55:16;15.50;53.90
3986;DHT22;2007;48.750;9.278;2023-10-19T04:57:45;15.50;53.90
3986;DHT22;2007;48.750;9.278;2023-10-19T05:00:16;15.50;53.90
3986;DHT22;2007;48.750;9.278;2023-10-19T05:02:47;15.50;53.90
3986;DHT22;2007;48.750;9.278;2023-10-19T05:05:15;15.50;53.90
3986;DHT22;2007;48.750;9.278;2023-10-19T05:07:44;15.50;53.90
3986;DHT22;2007;48.750;9.278;2023-10-19T05:10:12;15.50;53.90
3986;DHT22;2007;48.750;9.278;2023-10-19T05:12:40;15.50;53.90
3986;DHT22;2007;48.750;9.278;2023-10-19T05:15:08;15.50;53.90
3986;DHT22;2007;48.750;9.278;2023-10-19T05:17:37;15.50;53.90
3986;DHT22;2007;48.750;9.278;2023-10-19T05:20:07;15.50;53.90
3986;DHT22;2007;48.750;9.278;2023-10-19T05:22:35;15.50;53.90
3986;DHT22;2007;48.750;9.278;2023-10-19T05:25:04;15.50;53.90
3986;DHT22;2007;48.750;9.278;2023-10-19T05:27:34;15.50;53.90
3986;DHT22;2007;48.750;9.278;2023-10-19T05:30:03;15.50;53.90
3986;DHT22;2007;48.750;9.278;2023-10-19T05:32:31;15.50;53.90
3986;DHT22;2007;48.750;9.278;2023-10-19T05:35:01;15.50;54.00
3986;DHT22;2007;48.750;9.278;2023-10-19T05:37:31;15.50;53.90
3986;DHT22;2007;48.750;9.278;2023-10-19T05:40:00;15.50;53.90
3986;DHT22;2007;48.750;9.278;2023-10-19T05:42:31;15.50;53.90
3986;DHT22;2007;48.750;9.278;2023-10-19T05:45:01;15.50;53.90
3986;DHT22;2007;48.750;9.278;2023-10-19T05:47:29;15.50;54.00
3986;DHT22;2007;48.750;9.278;2023-10-19T05:49:57;15.50;53.90
3986;DHT22;2007;48.750;9.278;2023-10-19T05:52:27;15.50;53.90
3986;DHT22;2007;48.750;9.278;2023-10-19T05:54:56;15.50;53.90
3986;DHT22;2007;48.750;9.278;2023-10-19T05:57:24;15.50;53.90
3986;DHT22;2007;48.750;9.278;2023-10-19T05:59:52;15.50;54.00
3986;DHT22;2007;48.750;9.278;2023-10-19T06:02:20;15.50;53.90
3986;DHT22;2007;48.750;9.278;2023-10-19T06:04:59;15.50;53.90
3986;DHT22;2007;48.750;9.278;2023-10-19T06:07:28;15.50;53.90
3986;DHT22;2007;48.750;9.278;2023-10-19T06:09:56;15.50;53.90
3986;DHT22;2007;48.750;9.278;2023-10-19T06:12:24;15.50;53.90
3986;DHT22;2007;48.750;9.278;2023-10-19T06:14:52;15.50;54.00
3986;DHT22;2007;48.750;9.278;2023-10-19T06:17:20;15.50;53.90
3986;DHT22;2007;48.750;9.278;2023-10-19T06:19:48;15.50;53.90
3986;DHT22;2007;48.750;9.278;2023-10-19T06:22:16;15.50;53.90
3986;DHT22;2007;48.750;9.278;2023-10-19T06:24:45;15.50;53.90
3986;DHT22;2007;48.750;9.278;2023-10-19T06:27:13;15.50;54.00
3986;DHT22;2007;48.750;9.278;2023-10-19T06:29:41;15.50;53.90
3986;DHT22;2007;48.750;9.278;2023-10-19T06:32:10;15.50;53.90
3986;DHT22;2007;48.750;9.278;2023-10-19T06:34:40;15.50;53.90
3986;DHT22;2007;48.750;9.278;2023-10-19T06:37:08;15.50;54.00
3986;DHT22;2007;48.750;9.278;2023-10-19T06:39:37;15.50;54.00
3986;DHT22;2007;48.750;9.278;2023-10-19T06:42:09;15.50;53.90
3986;DHT22;2007;48.750;9.278;2023-10-19T06:44:41;15.50;53.90
3986;DHT22;2007;48.750;9.278;2023-10-19T06:47:10;15.50;53.90
3986;DHT22;2007;48.750;9.278;2023-10-19T06:49:39;15.50;53.90
3986;DHT22;2007;48.750;9.278;2023-10-19T06:52:07;15.50;54.00
3986;DHT22;2007;48.750;9.278;2023-10-19T06:54:38;15.50;54.00
3986;DHT22;2007;48.750;9.278;2023-10-19T06:57:06;15.50;53.90
3986;DHT22;2007;48.750;9.278;2023-10-19T06:59:36;15.50;53.90
3986;DHT22;2007;48.750;9.278;2023-10-19T07:02:05;15.50;54.00
3986;DHT22;2007;48.750;9.278;2023-10-19T07:04:34;15.50;53.90
3986;DHT22;2007;48.750;9.278;2023-10-19T07:07:03;15.50;54.00
3986;DHT22;2007;48.750;9.278;2023-10-19T07:09:31;15.50;53.90
3986;DHT22;2007;48.750;9.278;2023-10-19T07:12:01;15.50;54.00
3986;DHT22;2007;48.750;9.278;2023-10-19T07:14:32;15.50;54.00
3986;DHT22;2007;48.750;9.278;2023-10-19T07:17:01;15.50;54.00
3986;DHT22;2007;48.750;9.278;2023-10-19T07:19:29;15.50;54.00
3986;DHT22;2007;48.750;9.278;2023-10-19T07:21:57;15.50;54.60
3986;DHT22;2007;48.750;9.278;2023-10-19T07:24:25;15.50;54.00
3986;DHT22;2007;48.750;9.278;2023-10-19T07:26:53;15.50;53.90
3986;DHT22;2007;48.750;9.278;2023-10-19T07:29:31;15.50;54.00
3986;DHT22;2007;48.750;9.278;2023-10-19T07:32:01;15.50;54.60
3986;DHT22;2007;48.750;9.278;2023-10-19T07:34:31;15.50;54.00
3986;DHT22;2007;48.750;9.278;2023-10-19T07:37:00;15.50;54.00
3986;DHT22;2007;48.750;9.278;2023-10-19T07:39:30;15.50;54.00
3986;DHT22;2007;48.750;9.278;2023-10-19T07:42:00;15.50;54.00
3986;DHT22;2007;48.750;9.278;2023-10-19T07:44:31;15.50;54.00
3986;DHT22;2007;48.750;9.278;2023-10-19T07:47:01;15.50;54.00
3986;DHT22;2007;48.750;9.278;2023-10-19T07:49:29;15.50;54.00
3986;DHT22;2007;48.750;9.278;2023-10-19T07:51:57;15.50;54.00
3986;DHT22;2007;48.750;9.278;2023-10-19T07:54:26;15.50;54.00
3986;DHT22;2007;48.750;9.278;2023-10-19T07:56:54;15.50;54.00
3986;DHT22;2007;48.750;9.278;2023-10-19T07:59:24;15.50;54.00
3986;DHT22;2007;48.750;9.278;2023-10-19T08:01:52;15.50;54.00
3986;DHT22;2007;48.750;9.278;2023-10-19T08:04:22;15.50;54.00
3986;DHT22;2007;48.750;9.278;2023-10-19T08:06:52;15.50;54.00
3986;DHT22;2007;48.750;9.278;2023-10-19T08:09:20;15.50;54.00
3986;DHT22;2007;48.750;9.278;2023-10-19T08:11:49;15.50;54.00
3986;DHT22;2007;48.750;9.278;2023-10-19T08:14:22;15.50;54.00
3986;DHT22;2007;48.750;9.278;2023-10-19T08:16:51;15.50;54.00
3986;DHT22;2007;48.750;9.278;2023-10-19T08:19:19;15.50;54.00
3986;DHT22;2007;48.750;9.278;2023-10-19T08:21:49;15.50;54.00
3986;DHT22;2007;48.750;9.278;2023-10-19T08:24:17;15.50;54.00
3986;DHT22;2007;48.750;9.278;2023-10-19T08:26:47;15.50;54.00
3986;DHT22;2007;48.750;9.278;2023-10-19T08:29:15;15.50;54.00
3986;DHT22;2007;48.750;9.278;2023-10-19T08:31:44;15.50;54.00
3986;DHT22;2007;48.750;9.278;2023-10-19T08:34:12;15.50;54.00
3986;DHT22;2007;48.750;9.278;2023-10-19T08:36:40;15.50;54.00
3986;DHT22;2007;48.750;9.278;2023-10-19T08:39:10;15.50;54.00
3986;DHT22;2007;48.750;9.278;2023-10-19T08:41:40;15.50;54.00
3986;DHT22;2007;48.750;9.278;2023-10-19T08:44:08;15.50;54.00
3986;DHT22;2007;48.750;9.278;2023-10-19T08:46:40;15.60;54.10
3986;DHT22;2007;48.750;9.278;2023-10-19T08:49:10;15.50;54.00
3986;DHT22;2007;48.750;9.278;2023-10-19T08:51:40;15.60;54.10
3986;DHT22;2007;48.750;9.278;2023-10-19T08:54:13;15.50;54.00
3986;DHT22;2007;48.750;9.278;2023-10-19T08:56:42;15.60;54.10
3986;DHT22;2007;48.750;9.278;2023-10-19T08:59:11;15.60;54.10
3986;DHT22;2007;48.750;9.278;2023-10-19T09:01:39;15.50;54.00
3986;DHT22;2007;48.750;9.278;2023-10-19T09:04:08;15.50;54.00
3986;DHT22;2007;48.750;9.278;2023-10-19T09:06:37;15.50;54.00
3986;DHT22;2007;48.750;9.278;2023-10-19T09:09:09;15.60;54.00
3986;DHT22;2007;48.750;9.278;2023-10-19T09:11:45;15.60;54.00
3986;DHT22;2007;48.750;9.278;2023-10-19T09:14:13;15.60;54.10
3986;DHT22;2007;48.750;9.278;2023-10-19T09:16:53;15.60;54.10
3986;DHT22;2007;48.750;9.278;2023-10-19T09:19:39;15.50;54.00
3986;DHT22;2007;48.750;9.278;2023-10-19T09:22:09;15.60;54.10
3986;DHT22;2007;48.750;9.278;2023-10-19T09:24:45;15.50;54.00
3986;DHT22;2007;48.750;9.278;2023-10-19T09:27:17;15.60;54.10
3986;DHT22;2007;48.750;9.278;2023-10-19T09:29:45;15.50;54.00
3986;DHT22;2007;48.750;9.278;2023-10-19T09:32:14;15.60;54.10
3986;DHT22;2007;48.750;9.278;2023-10-19T09:34:44;15.60;54.10
3986;DHT22;2007;48.750;9.278;2023-10-19T09:37:16;15.60;54.10
3986;DHT22;2007;48.750;9.278;2023-10-19T09:39:44;15.60;54.10
3986;DHT22;2007;48.750;9.278;2023-10-19T09:42:15;15.60;54.10
3986;DHT22;2007;48.750;9.278;2023-10-19T09:44:45;15.50;54.00
3986;DHT22;2007;48.750;9.278;2023-10-19T09:47:26;15.60;54.10
3986;DHT22;2007;48.750;9.278;2023-10-19T09:49:55;15.50;54.00
3986;DHT22;2007;48.750;9.278;2023-10-19T09:52:23;15.60;54.10
3986;DHT22;2007;48.750;9.278;2023-10-19T09:54:57;15.60;54.10
3986;DHT22;2007;48.750;9.278;2023-10-19T09:57:34;15.60;54.10
3986;DHT22;2007;48.750;9.278;2023-10-19T10:00:04;15.60;54.10
3986;DHT22;2007;48.750;9.278;2023-10-19T10:02:39;15.60;54.10
3986;DHT22;2007;48.750;9.278;2023-10-19T10:05:45;15.60;54.10
3986;DHT22;2007;48.750;9.278;2023-10-19T10:08:32;15.60;54.10
3986;DHT22;2007;48.750;9.278;2023-10-19T10:11:17;15.60;54.10
3986;DHT22;2007;48.750;9.278;2023-10-19T10:13:48;15.60;54.10
3986;DHT22;2007;48.750;9.278;2023-10-19T10:16:21;15.60;54.10
3986;DHT22;2007;48.750;9.278;2023-10-19T10:18:50;15.60;54.10
3986;DHT22;2007;48.750;9.278;2023-10-19T10:21:19;15.60;54.10
3986;DHT22;2007;48.750;9.278;2023-10-19T10:23:49;15.60;54.10
3986;DHT22;2007;48.750;9.278;2023-10-19T10:26:21;15.60;54.10
3986;DHT22;2007;48.750;9.278;2023-10-19T10:29:12;15.60;54.10
3986;DHT22;2007;48.750;9.278;2023-10-19T10:31:42;15.60;54.10
3986;DHT22;2007;48.750;9.278;2023-10-19T10:34:12;15.60;54.10
3986;DHT22;2007;48.750;9.278;2023-10-19T10:37:00;15.60;54.10
3986;DHT22;2007;48.750;9.278;2023-10-19T10:39:30;15.60;54.10
3986;DHT22;2007;48.750;9.278;2023-10-19T10:41:59;15.60;54.10
3986;DHT22;2007;48.750;9.278;2023-10-19T10:44:38;15.60;54.10
3986;DHT22;2007;48.750;9.278;2023-10-19T10:47:08;15.60;54.10
3986;DHT22;2007;48.750;9.278;2023-10-19T10:49:49;15.60;54.10
3986;DHT22;2007;48.750;9.278;2023-10-19T10:52:27;15.60;54.10
3986;DHT22;2007;48.750;9.278;2023-10-19T10:54:57;15.60;54.10
3986;DHT22;2007;48.750;9.278;2023-10-19T10:57:31;15.60;54.10
3986;DHT22;2007;48.750;9.278;2023-10-19T11:00:06;15.60;54.20
3986;DHT22;2007;48.750;9.278;2023-10-19T11:02:35;15.60;54.10
3986;DHT22;2007;48.750;9.278;2023-10-19T11:05:07;15.60;54.10
3986;DHT22;2007;48.750;9.278;2023-10-19T11:07:39;15.60;54.10
3986;DHT22;2007;48.750;9.278;2023-10-19T11:10:08;15.60;54.20
3986;DHT22;2007;48.750;9.278;2023-10-19T11:12:36;15.60;54.20
3986;DHT22;2007;48.750;9.278;2023-10-19T11:15:07;15.60;54.10
3986;DHT22;2007;48.750;9.278;2023-10-19T11:17:43;15.60;54.20
3986;DHT22;2007;48.750;9.278;2023-10-19T11:20:21;15.60;54.10
3986;DHT22;2007;48.750;9.278;2023-10-19T11:22:50;15.60;54.10
3986;DHT22;2007;48.750;9.278;2023-10-19T11:25:20;15.60;54.10
3986;DHT22;2007;48.750;9.278;2023-10-19T11:27:48;15.60;54.10
3986;DHT22;2007;48.750;9.278;2023-10-19T11:30:24;15.60;54.20
3986;DHT22;2007;48.750;9.278;2023-10-19T11:32:53;15.60;54.10
3986;DHT22;2007;48.750;9.278;2023-10-19T11:35:24;15.60;54.10
3986;DHT22;2007;48.750;9.278;2023-10-19T11:37:54;15.60;54.10
3986;DHT22;2007;48.750;9.278;2023-10-19T11:40:23;15.60;54.80
3986;DHT22;2007;48.750;9.278;2023-10-19T11:42:52;15.60;54.20
3986;DHT22;2007;48.750;9.278;2023-10-19T11:45:24;15.60;54.20
3986;DHT22;2007;48.750;9.278;2023-10-19T11:47:53;15.60;54.10
3986;DHT22;2007;48.750;9.278;2023-10-19T11:50:21;15.60;54.20
3986;DHT22;2007;48.750;9.278;2023-10-19T11:52:51;15.60;54.10
3986;DHT22;2007;48.750;9.278;2023-10-19T11:55:19;15.60;54.10
3986;DHT22;2007;48.750;9.278;2023-10-19T11:57:48;15.60;54.10
3986;DHT22;2007;48.750;9.278;2023-10-19T12:00:16;15.60;54.10
3986;DHT22;2007;48.750;9.278;2023-10-19T12:02:50;15.60;54.10
3986;DHT22;2007;48.750;9.278;2023-10-19T12:05:19;15.60;54.10
3986;DHT22;2007;48.750;9.278;2023-10-19T12:07:47;15.60;54.10
3986;DHT22;2007;48.750;9.278;2023-10-19T12:10:16;15.60;54.10
3986;DHT22;2007;48.750;9.278;2023-10-19T12:12:44;15.60;54.10
3986;DHT22;2007;48.750;9.278;2023-10-19T12:15:27;15.60;54.10
3986;DHT22;2007;48.750;9.278;2023-10-19T12:17:57;15.60;54.10
3986;DHT22;2007;48.750;9.278;2023-10-19T12:20:25;15.60;54.10
3986;DHT22;2007;48.750;9.278;2023-10-19T12:22:53;15.60;54.10
3986;DHT22;2007;48.750;9.278;2023-10-19T12:25:22;15.60;54.10
3986;DHT22;2007;48.750;9.278;2023-10-19T12:28:02;15.60;54.10
3986;DHT22;2007;48.750;9.278;2023-10-19T12:30:31;15.70;54.20
3986;DHT22;2007;48.750;9.278;2023-10-19T12:33:05;15.60;54.10
3986;DHT22;2007;48.750;9.278;2023-10-19T12:35:39;15.60;54.10
3986;DHT22;2007;48.750;9.278;2023-10-19T12:38:12;15.70;54.20
3986;DHT22;2007;48.750;9.278;2023-10-19T12:40:47;15.70;54.20
3986;DHT22;2007;48.750;9.278;2023-10-19T12:43:15;15.60;54.10
3986;DHT22;2007;48.750;9.278;2023-10-19T12:45:45;15.70;54.20
3986;DHT22;2007;48.750;9.278;2023-10-19T12:48:18;15.70;54.20
3986;DHT22;2007;48.750;9.278;2023-10-19T12:50:47;15.60;54.10
3986;DHT22;2007;48.750;9.278;2023-10-19T12:53:15;15.60;54.10
3986;DHT22;2007;48.750;9.278;2023-10-19T12:55:43;15.70;54.20
3986;DHT22;2007;48.750;9.278;2023-10-19T12:58:11;15.60;54.10
3986;DHT22;2007;48.750;9.278;2023-10-19T13:00:41;15.60;54.10
3986;DHT22;2007;48.750;9.278;2023-10-19T13:03:12;15.70;54.20
3986;DHT22;2007;48.750;9.278;2023-10-19T13:05:45;15.70;54.20
3986;DHT22;2007;48.750;9.278;2023-10-19T13:08:14;15.60;54.10
3986;DHT22;2007;48.750;9.278;2023-10-19T13:10:43;15.60;54.10
3986;DHT22;2007;48.750;9.278;2023-10-19T13:13:12;15.60;54.20
3986;DHT22;2007;48.750;9.278;2023-10-19T13:15:43;15.60;54.10
3986;DHT22;2007;48.750;9.278;2023-10-19T13:18:12;15.60;54.20
3986;DHT22;2007;48.750;9.278;2023-10-19T13:20:48;15.60;54.20
3986;DHT22;2007;48.750;9.278;2023-10-19T13:23:16;15.70;54.20
3986;DHT22;2007;48.750;9.278;2023-10-19T13:25:49;15.70;54.20
3986;DHT22;2007;48.750;9.278;2023-10-19T13:28:21;15.60;54.20
3986;DHT22;2007;48.750;9.278;2023-10-19T13:30:50;15.60;54.10
3986;DHT22;2007;48.750;9.278;2023-10-19T13:33:20;15.70;54.20
3986;DHT22;2007;48.750;9.278;2023-10-19T13:35:50;15.70;54.20
3986;DHT22;2007;48.750;9.278;2023-10-19T13:38:19;15.70;54.30
3986;DHT22;2007;48.750;9.278;2023-10-19T13:40:47;15.70;54.20
3986;DHT22;2007;48.750;9.278;2023-10-19T13:43:17;15.70;54.20
3986;DHT22;2007;48.750;9.278;2023-10-19T13:45:47;15.70;54.20
3986;DHT22;2007;48.750;9.278;2023-10-19T13:48:15;15.70;54.20
3986;DHT22;2007;48.750;9.278;2023-10-19T13:50:46;15.60;54.20
3986;DHT22;2007;48.750;9.278;2023-10-19T13:53:17;15.70;54.30
3986;DHT22;2007;48.750;9.278;2023-10-19T13:55:45;15.70;54.30
3986;DHT22;2007;48.750;9.278;2023-10-19T13:58:13;15.70;54.30
3986;DHT22;2007;48.750;9.278;2023-10-19T14:00:42;15.70;54.30
3986;DHT22;2007;48.750;9.278;2023-10-19T14:03:12;15.70;54.30
3986;DHT22;2007;48.750;9.278;2023-10-19T14:05:42;15.70;54.30
3986;DHT22;2007;48.750;9.278;2023-10-19T14:08:17;15.70;54.40
3986;DHT22;2007;48.750;9.278;2023-10-19T14:10:46;15.70;54.40
3986;DHT22;2007;48.750;9.278;2023-10-19T14:13:15;15.70;54.40
3986;DHT22;2007;48.750;9.278;2023-10-19T14:15:43;15.70;54.40
3986;DHT22;2007;48.750;9.278;2023-10-19T14:18:11;15.70;54.40
3986;DHT22;2007;48.750;9.278;2023-10-19T14:20:40;15.70;54.40
3986;DHT22;2007;48.750;9.278;2023-10-19T14:23:08;15.70;54.40
3986;DHT22;2007;48.750;9.278;2023-10-19T14:25:39;15.70;54.40
3986;DHT22;2007;48.750;9.278;2023-10-19T14:28:08;15.70;54.40
3986;DHT22;2007;48.750;9.278;2023-10-19T14:30:37;15.70;54.40
3986;DHT22;2007;48.750;9.278;2023-10-19T14:33:05;15.70;54.40
3986;DHT22;2007;48.750;9.278;2023-10-19T14:35:38;15.70;54.40
3986;DHT22;2007;48.750;9.278;2023-10-19T14:38:09;15.70;54.40
3986;DHT22;2007;48.750;9.278;2023-10-19T14:40:41;15.70;54.30
3986;DHT22;2007;48.750;9.278;2023-10-19T14:43:11;15.70;54.40
3986;DHT22;2007;48.750;9.278;2023-10-19T14:45:41;15.70;54.30
3986;DHT22;2007;48.750;9.278;2023-10-19T14:48:09;15.70;54.40
3986;DHT22;2007;48.750;9.278;2023-10-19T14:50:38;15.70;54.40
3986;DHT22;2007;48.750;9.278;2023-10-19T14:53:06;15.70;54.40
3986;DHT22;2007;48.750;9.278;2023-10-19T14:55:34;15.70;54.40
3986;DHT22;2007;48.750;9.278;2023-10-19T14:58:04;15.80;54.50
3986;DHT22;2007;48.750;9.278;2023-10-19T15:00:33;15.70;54.40
3986;DHT22;2007;48.750;9.278;2023-10-19T15:03:05;15.70;54.40
3986;DHT22;2007;48.750;9.278;2023-10-19T15:05:36;15.70;54.40
3986;DHT22;2007;48.750;9.278;2023-10-19T15:08:05;15.70;54.40
3986;DHT22;2007;48.750;9.278;2023-10-19T15:10:35;15.70;54.40
3986;DHT22;2007;48.750;9.278;2023-10-19T15:13:08;15.70;54.40
3986;DHT22;2007;48.750;9.278;2023-10-19T15:15:36;15.70;54.40
3986;DHT22;2007;48.750;9.278;2023-10-19T15:18:04;15.70;54.30
3986;DHT22;2007;48.750;9.278;2023-10-19T15:20:33;15.70;54.40
3986;DHT22;2007;48.750;9.278;2023-10-19T15:23:02;15.80;54.40
3986;DHT22;2007;48.750;9.278;2023-10-19T15:25:31;15.70;54.30
3986;DHT22;2007;48.750;9.278;2023-10-19T15:27:59;15.70;54.30
3986;DHT22;2007;48.750;9.278;2023-10-19T15:30:28;15.70;54.30
3986;DHT22;2007;48.750;9.278;2023-10-19T15:32:56;15.80;54.40
3986;DHT22;2007;48.750;9.278;2023-10-19T15:35:24;15.70;54.30
3986;DHT22;2007;48.750;9.278;2023-10-19T15:37:54;15.70;54.30
3986;DHT22;2007;48.750;9.278;2023-10-19T15:40:23;15.70;54.30
3986;DHT22;2007;48.750;9.278;2023-10-19T15:42:53;15.80;54.40
3986;DHT22;2007;48.750;9.278;2023-10-19T15:45:22;15.70;54.30
3986;DHT22;2007;48.750;9.278;2023-10-19T15:47:53;15.70;54.30
3986;DHT22;2007;48.750;9.278;2023-10-19T15:50:22;15.70;54.30
3986;DHT22;2007;48.750;9.278;2023-10-19T15:52:50;15.80;54.40
3986;DHT22;2007;48.750;9.278;2023-10-19T15:55:19;15.70;54.30
3986;DHT22;2007;48.750;9.278;2023-10-19T15:57:49;15.80;54.40
3986;DHT22;2007;48.750;9.278;2023-10-19T16:00:18;15.80;54.40
3986;DHT22;2007;48.750;9.278;2023-10-19T16:02:47;15.70;54.30
3986;DHT22;2007;48.750;9.278;2023-10-19T16:05:17;15.80;54.40
3986;DHT22;2007;48.750;9.278;2023-10-19T16:07:45;15.80;54.40
3986;DHT22;2007;48.750;9.278;2023-10-19T16:10:14;15.80;54.40
3986;DHT22;2007;48.750;9.278;2023-10-19T16:12:42;15.80;54.40
3986;DHT22;2007;48.750;9.278;2023-10-19T16:15:11;15.80;54.40
3986;DHT22;2007;48.750;9.278;2023-10-19T16:17:40;15.80;54.40
3986;DHT22;2007;48.750;9.278;2023-10-19T16:20:11;15.80;54.40
3986;DHT22;2007;48.750;9.278;2023-10-19T16:22:41;15.80;54.40
3986;DHT22;2007;48.750;9.278;2023-10-19T16:25:10;15.80;54.40